Time;durP1;ratioP1;P1;durP2;ratioP2;P2;SDS_P1;SDS_P2;PMS_P1;PMS_P2;Temp;Humidity;BMP_temperature;BMP_pressure;BME280_temperature;BME280_humidity;BME280_pressure;Samples;Min_cycle;Max_cycle;Signal;HPM_P1;HPM_P2
2023/05/19 00:02:17;;;;;;;1999.90;999.90;;;25.40;80.30;;;;;;5091117;28;20028;-75
2023/05/19 00:04:46;;;;;;;1999.90;999.90;;;25.30;80.00;;;;;;5079723;28;20046;-74
2023/05/19 00:07:24;;;;;;;1999.90;999.90;;;25.60;80.20;;;;;;5069484;28;22401;-73
2023/05/19 00:09:51;;;;;;;1999.90;999.90;;;25.90;80.10;;;;;;5072895;28;20047;-73
2023/05/19 00:12:19;;;;;;;1999.90;999.90;;;26.10;79.50;;;;;;5085052;28;20390;-71
2023/05/19 00:14:46;;;;;;;1999.90;999.90;;;26.10;78.60;;;;;;5093564;28;20031;-74
2023/05/19 00:17:15;;;;;;;1999.90;999.90;;;26.40;78.70;;;;;;5097142;28;20092;-70
2023/05/19 00:19:43;;;;;;;1999.90;999.90;;;26.60;77.10;;;;;;5095964;28;20168;-71
2023/05/19 00:22:11;;;;;;;1999.90;999.90;;;26.70;78.40;;;;;;5093834;28;20028;-70
2023/05/19 00:24:38;;;;;;;1999.90;999.90;;;26.80;77.70;;;;;;5099822;28;20054;-71
2023/05/19 00:27:06;;;;;;;1999.90;999.90;;;27.20;77.00;;;;;;5090383;28;20032;-71
2023/05/19 00:29:34;;;;;;;1999.90;999.90;;;27.30;76.20;;;;;;5095977;28;20044;-72
2023/05/19 00:32:01;;;;;;;1999.90;999.90;;;27.10;76.50;;;;;;5096021;28;20020;-71
2023/05/19 00:34:28;;;;;;;1999.90;999.90;;;27.50;76.80;;;;;;5088188;28;20067;-71
2023/05/19 00:36:56;;;;;;;1999.90;999.90;;;27.70;76.30;;;;;;5092453;28;20016;-71
2023/05/19 00:39:23;;;;;;;1999.90;999.90;;;27.80;74.60;;;;;;5096220;28;20446;-72
2023/05/19 00:41:51;;;;;;;1999.90;999.90;;;28.00;74.80;;;;;;5091192;28;20496;-72
2023/05/19 00:44:18;;;;;;;1999.90;999.90;;;27.80;75.00;;;;;;5093074;28;20015;-72
2023/05/19 00:46:45;;;;;;;1999.90;999.90;;;28.00;73.70;;;;;;5092295;28;20039;-72
2023/05/19 00:49:13;;;;;;;1999.90;999.90;;;28.20;73.30;;;;;;5077782;28;20092;-72
2023/05/19 00:51:41;;;;;;;1999.90;999.90;;;28.40;72.20;;;;;;5063680;28;20123;-72
2023/05/19 00:54:09;;;;;;;1999.90;999.90;;;28.40;72.20;;;;;;5084103;28;20036;-73
2023/05/19 00:56:37;;;;;;;1999.90;999.90;;;28.30;72.80;;;;;;5090591;28;20110;-72
2023/05/19 00:59:05;;;;;;;1999.90;999.90;;;28.50;71.70;;;;;;5084097;28;20047;-71
2023/05/19 01:01:33;;;;;;;1999.90;999.90;;;28.40;72.20;;;;;;5078445;28;20028;-71
2023/05/19 01:04:03;;;;;;;1999.90;999.90;;;28.30;72.50;;;;;;5090975;28;20099;-71
2023/05/19 01:06:30;;;;;;;1999.90;999.90;;;28.40;72.00;;;;;;5083314;28;20528;-72
2023/05/19 01:08:58;;;;;;;1999.90;999.90;;;28.40;71.20;;;;;;5077039;28;20130;-71
2023/05/19 01:11:25;;;;;;;1999.90;999.90;;;28.60;69.90;;;;;;5078256;28;20093;-72
2023/05/19 01:13:52;;;;;;;1999.90;999.90;;;28.20;71.80;;;;;;5088530;28;20040;-69
2023/05/19 01:16:55;;;;;;;1999.90;999.90;;;28.20;71.30;;;;;;5079240;28;20025;-70
2023/05/19 01:19:38;;;;;;;1999.90;999.90;;;28.50;70.40;;;;;;5055729;28;20554;-72
2023/05/19 01:22:12;;;;;;;1999.90;999.90;;;28.40;70.60;;;;;;5064241;28;20036;-72
2023/05/19 01:25:25;;;;;;;1999.90;999.90;;;28.50;70.00;;;;;;5087811;28;21804;-73
2023/05/19 01:28:29;;;;;;;1999.90;999.90;;;28.50;69.20;;;;;;5090617;28;20089;-70
2023/05/19 01:30:59;;;;;;;1999.90;999.90;;;28.70;69.30;;;;;;5072046;28;20036;-70
2023/05/19 01:33:28;;;;;;;1999.90;999.90;;;29.00;69.60;;;;;;5078132;28;20027;-71
2023/05/19 01:35:57;;;;;;;1999.90;999.90;;;29.10;69.10;;;;;;5084835;28;20098;-71
2023/05/19 01:38:27;;;;;;;1999.90;999.90;;;28.90;68.50;;;;;;5086241;28;20023;-73
2023/05/19 01:40:56;;;;;;;1999.90;999.90;;;28.60;68.30;;;;;;5078369;28;20027;-72
2023/05/19 01:43:25;;;;;;;1999.90;999.90;;;28.70;69.10;;;;;;5084502;28;20036;-73
2023/05/19 01:45:54;;;;;;;1999.90;999.90;;;28.80;69.00;;;;;;5082099;28;20068;-72
2023/05/19 01:48:22;;;;;;;1999.90;999.90;;;29.00;67.30;;;;;;5085874;28;20020;-71
2023/05/19 01:50:49;;;;;;;1999.90;999.90;;;29.00;67.90;;;;;;5083336;28;20032;-71
2023/05/19 01:53:17;;;;;;;1999.90;999.90;;;29.00;66.70;;;;;;5084626;28;20527;-69
2023/05/19 01:55:49;;;;;;;1999.90;999.90;;;29.00;67.30;;;;;;5072643;28;20073;-69
2023/05/19 01:58:34;;;;;;;1999.90;999.90;;;28.80;67.60;;;;;;5069409;28;20016;-69
2023/05/19 02:01:16;;;;;;;1999.90;999.90;;;28.90;68.10;;;;;;5075361;28;20043;-71
2023/05/19 02:03:55;;;;;;;1999.90;999.90;;;28.90;67.10;;;;;;5082504;28;20031;-72
2023/05/19 02:06:23;;;;;;;1999.90;999.90;;;28.60;67.50;;;;;;5076604;28;20125;-70
2023/05/19 02:09:34;;;;;;;1999.90;999.90;;;28.50;67.80;;;;;;5089728;28;20035;-71
2023/05/19 02:12:11;;;;;;;1999.90;999.90;;;28.60;67.80;;;;;;4958725;28;20442;-71
2023/05/19 02:14:49;;;;;;;1999.90;999.90;;;28.60;67.30;;;;;;4973004;28;20034;-72
2023/05/19 02:17:19;;;;;;;1999.90;999.90;;;28.60;68.50;;;;;;5047487;28;20119;-71
2023/05/19 02:19:47;;;;;;;1999.90;999.90;;;28.70;68.50;;;;;;5086549;28;20024;-72
2023/05/19 02:22:14;;;;;;;1999.90;999.90;;;28.70;68.10;;;;;;5083591;28;20032;-71
2023/05/19 02:24:43;;;;;;;1999.90;999.90;;;28.70;68.00;;;;;;5082766;28;20020;-71
2023/05/19 02:27:10;;;;;;;1999.90;999.90;;;28.70;68.40;;;;;;5088025;28;20035;-70
2023/05/19 02:29:38;;;;;;;1999.90;999.90;;;28.60;68.60;;;;;;5089290;28;20042;-72
2023/05/19 02:32:06;;;;;;;1999.90;999.90;;;28.50;68.00;;;;;;5088965;28;20499;-72
2023/05/19 02:34:33;;;;;;;1999.90;999.90;;;27.60;66.10;;;;;;5091654;28;20040;-71
2023/05/19 02:37:01;;;;;;;1999.90;999.90;;;27.00;68.80;;;;;;5082582;28;20055;-71
2023/05/19 02:39:33;;;;;;;1999.90;999.90;;;26.80;68.80;;;;;;5083493;28;20052;-71
2023/05/19 02:42:01;;;;;;;1999.90;999.90;;;26.70;68.00;;;;;;5085065;28;20137;-71
2023/05/19 02:44:29;;;;;;;1999.90;999.90;;;26.40;69.30;;;;;;5077837;28;20055;-70
2023/05/19 02:46:56;;;;;;;1999.90;999.90;;;26.50;69.90;;;;;;5076685;28;20008;-70
2023/05/19 02:49:23;;;;;;;1999.90;999.90;;;26.40;67.20;;;;;;5082198;28;20665;-71
2023/05/19 02:51:51;;;;;;;1999.90;999.90;;;25.90;67.60;;;;;;5081638;28;20033;-71
2023/05/19 02:54:18;;;;;;;1999.90;999.90;;;25.40;68.60;;;;;;5091043;28;20058;-71
2023/05/19 02:56:46;;;;;;;1999.90;999.90;;;25.20;69.90;;;;;;5083234;28;20048;-73
2023/05/19 02:59:16;;;;;;;1999.90;999.90;;;25.00;68.80;;;;;;5086248;28;20118;-70
2023/05/19 03:01:43;;;;;;;1999.90;999.90;;;24.50;68.10;;;;;;5076717;28;20044;-70
2023/05/19 03:04:12;;;;;;;1999.90;999.90;;;24.30;70.80;;;;;;5093630;28;20107;-71
2023/05/19 03:06:41;;;;;;;1999.90;999.90;;;24.30;69.10;;;;;;5088631;28;20048;-70
2023/05/19 03:09:09;;;;;;;1999.90;999.90;;;24.20;69.30;;;;;;5087187;28;20118;-71
2023/05/19 03:11:37;;;;;;;1999.90;999.90;;;24.00;69.80;;;;;;5086682;28;20039;-70
2023/05/19 03:14:05;;;;;;;1999.90;999.90;;;23.90;70.70;;;;;;5080943;28;20043;-71
2023/05/19 03:16:36;;;;;;;1999.90;999.90;;;23.70;70.20;;;;;;5077457;28;20024;-71
2023/05/19 03:19:03;;;;;;;1999.90;999.90;;;23.70;71.80;;;;;;5078667;28;20039;-69
2023/05/19 03:21:31;;;;;;;1999.90;999.90;;;23.70;72.60;;;;;;5073556;28;20031;-68
2023/05/19 03:23:58;;;;;;;1999.90;999.90;;;23.40;71.20;;;;;;5089859;28;20104;-69
2023/05/19 03:26:26;;;;;;;1999.90;999.90;;;23.00;72.70;;;;;;5089442;28;20051;-69
2023/05/19 03:28:53;;;;;;;1999.90;999.90;;;22.60;71.80;;;;;;5094468;28;20133;-69
2023/05/19 03:31:20;;;;;;;1999.90;999.90;;;22.30;72.90;;;;;;5076171;28;20064;-69
2023/05/19 03:33:48;;;;;;;1999.90;999.90;;;22.10;73.50;;;;;;5089098;28;20063;-69
2023/05/19 03:36:16;;;;;;;1999.90;999.90;;;21.90;72.90;;;;;;5077001;28;20048;-69
2023/05/19 03:38:43;;;;;;;1999.90;999.90;;;21.60;73.20;;;;;;5081067;28;20032;-69
2023/05/19 03:41:11;;;;;;;1999.90;999.90;;;21.10;73.50;;;;;;5076174;28;20027;-70
2023/05/19 03:43:38;;;;;;;1999.90;999.90;;;20.50;74.60;;;;;;5074374;28;20067;-70
2023/05/19 03:46:05;;;;;;;1999.90;999.90;;;20.10;75.70;;;;;;5077258;28;20028;-69
2023/05/19 03:48:33;;;;;;;1999.90;999.90;;;19.90;77.00;;;;;;5082849;28;20126;-69
2023/05/19 03:51:01;;;;;;;1999.90;999.90;;;19.70;76.50;;;;;;5089478;28;20107;-69
2023/05/19 03:53:29;;;;;;;1999.90;999.90;;;19.60;77.90;;;;;;5090330;28;20037;-68
2023/05/19 03:55:56;;;;;;;1999.90;999.90;;;19.50;76.50;;;;;;5082373;28;20103;-71
2023/05/19 03:58:23;;;;;;;1999.90;999.90;;;19.40;77.90;;;;;;5087053;28;20036;-69
2023/05/19 04:00:51;;;;;;;1999.90;999.90;;;19.30;77.80;;;;;;5087859;28;20040;-69
2023/05/19 04:03:18;;;;;;;1999.90;999.90;;;19.20;77.60;;;;;;5083988;28;20034;-69
2023/05/19 04:05:45;;;;;;;1999.90;999.90;;;19.20;78.80;;;;;;5083107;28;20127;-69
2023/05/19 04:08:13;;;;;;;1999.90;999.90;;;19.20;79.00;;;;;;5062235;28;20039;-69
2023/05/19 04:10:40;;;;;;;1999.90;999.90;;;19.10;78.80;;;;;;5077293;28;20062;-70
2023/05/19 04:13:07;;;;;;;1999.90;999.90;;;19.20;79.60;;;;;;5079123;28;20035;-69
2023/05/19 04:15:35;;;;;;;1999.90;999.90;;;19.10;80.60;;;;;;5075071;28;20033;-67
2023/05/19 04:18:02;;;;;;;1999.90;999.90;;;19.00;79.40;;;;;;5082991;28;20040;-69
2023/05/19 04:20:29;;;;;;;1999.90;999.90;;;18.90;78.40;;;;;;5080393;28;20020;-70
2023/05/19 04:22:57;;;;;;;1999.90;999.90;;;18.70;78.40;;;;;;5084341;28;20375;-70
2023/05/19 04:25:24;;;;;;;1999.90;999.90;;;18.60;79.10;;;;;;5069396;28;20111;-69
2023/05/19 04:27:51;;;;;;;1999.90;999.90;;;18.50;79.90;;;;;;5072780;28;20039;-69
2023/05/19 04:30:21;;;;;;;1999.90;999.90;;;18.60;80.10;;;;;;5068781;28;20044;-68
2023/05/19 04:32:51;;;;;;;1999.90;999.90;;;18.60;79.40;;;;;;5092747;28;20028;-69
2023/05/19 04:35:18;;;;;;;1999.90;999.90;;;18.50;79.80;;;;;;5086232;28;20039;-68
2023/05/19 04:37:47;;;;;;;1999.90;999.90;;;18.40;80.40;;;;;;5081488;28;20028;-68
2023/05/19 04:40:14;;;;;;;1999.90;999.90;;;18.40;81.90;;;;;;5091789;28;20110;-68
2023/05/19 04:42:44;;;;;;;1999.90;999.90;;;18.50;81.70;;;;;;5095627;28;20032;-67
2023/05/19 04:45:12;;;;;;;1999.90;999.90;;;18.40;81.50;;;;;;5088012;28;20029;-68
2023/05/19 04:47:40;;;;;;;1999.90;999.90;;;18.40;82.20;;;;;;5089202;28;20580;-68
2023/05/19 04:50:09;;;;;;;1999.90;999.90;;;18.40;81.30;;;;;;5082497;28;20024;-68
2023/05/19 04:52:37;;;;;;;1999.90;999.90;;;18.30;80.80;;;;;;5091450;28;20035;-68
2023/05/19 04:55:05;;;;;;;1999.90;999.90;;;18.20;81.20;;;;;;5097219;28;20024;-69
2023/05/19 04:57:42;;;;;;;1999.90;999.90;;;18.20;80.70;;;;;;5090563;28;20470;-69
2023/05/19 05:00:13;;;;;;;1999.90;999.90;;;18.10;81.50;;;;;;5079871;28;20178;-68
2023/05/19 05:02:41;;;;;;;1999.90;999.90;;;18.00;82.30;;;;;;5095150;28;20539;-70
2023/05/19 05:05:09;;;;;;;1999.90;999.90;;;17.90;82.20;;;;;;5091606;28;20028;-70
2023/05/19 05:07:36;;;;;;;1999.90;999.90;;;17.90;82.80;;;;;;5091282;28;20393;-70
2023/05/19 05:10:04;;;;;;;1999.90;999.90;;;18.00;82.30;;;;;;5093674;28;20051;-70
2023/05/19 05:12:31;;;;;;;1999.90;999.90;;;18.00;82.10;;;;;;5088920;28;20084;-68
2023/05/19 05:14:59;;;;;;;1999.90;999.90;;;18.00;83.30;;;;;;5089433;28;20048;-70
2023/05/19 05:17:27;;;;;;;1999.90;999.90;;;18.00;84.70;;;;;;5094098;28;20036;-71
2023/05/19 05:19:54;;;;;;;1999.90;999.90;;;17.90;83.60;;;;;;5084067;28;20028;-70
2023/05/19 05:22:22;;;;;;;1999.90;999.90;;;17.90;82.80;;;;;;5087730;28;20101;-70
2023/05/19 05:24:49;;;;;;;1999.90;999.90;;;18.00;82.60;;;;;;5083510;28;20028;-71
2023/05/19 05:27:17;;;;;;;1999.90;999.90;;;17.90;83.40;;;;;;5081607;28;20032;-73
2023/05/19 05:29:44;;;;;;;1999.90;999.90;;;17.90;83.90;;;;;;5080524;28;20040;-74
2023/05/19 05:32:12;;;;;;;1999.90;999.90;;;18.10;84.40;;;;;;5082579;28;20064;-69
2023/05/19 05:34:40;;;;;;;1999.90;999.90;;;18.30;85.40;;;;;;5085399;28;20058;-75
2023/05/19 05:37:08;;;;;;;1999.90;999.90;;;18.50;82.60;;;;;;5082610;28;20051;-72
2023/05/19 05:39:36;;;;;;;1999.90;999.90;;;18.70;83.70;;;;;;5090537;28;20103;-71
2023/05/19 05:42:03;;;;;;;1999.90;999.90;;;19.00;84.80;;;;;;5073992;28;20035;-75
2023/05/19 05:44:30;;;;;;;1999.90;999.90;;;19.50;83.50;;;;;;5090823;28;20067;-71
2023/05/19 05:46:58;;;;;;;1999.90;999.90;;;20.10;83.40;;;;;;5069710;28;20082;-71
2023/05/19 05:49:29;;;;;;;1999.90;999.90;;;20.10;86.70;;;;;;5083425;28;20032;-71
2023/05/19 05:51:57;;;;;;;1999.90;999.90;;;20.70;84.40;;;;;;5084612;28;20110;-72
2023/05/19 05:54:24;;;;;;;1999.90;999.90;;;20.70;84.40;;;;;;5077894;28;20066;-72
2023/05/19 05:56:52;;;;;;;1999.90;999.90;;;20.80;81.90;;;;;;5080541;28;20066;-72
2023/05/19 05:59:20;;;;;;;1999.90;999.90;;;20.70;80.60;;;;;;5076961;28;20035;-72
2023/05/19 06:01:49;;;;;;;1999.90;999.90;;;20.50;80.10;;;;;;5081438;28;20099;-73
2023/05/19 06:04:16;;;;;;;1999.90;999.90;;;20.20;80.60;;;;;;5069662;28;20035;-73
2023/05/19 06:06:43;;;;;;;1999.90;999.90;;;19.90;80.90;;;;;;5082000;28;20162;-74
2023/05/19 06:09:11;;;;;;;1999.90;999.90;;;19.70;82.10;;;;;;5083076;28;20028;-70
2023/05/19 06:11:39;;;;;;;1999.90;999.90;;;19.50;81.40;;;;;;5074205;28;20053;-72
2023/05/19 06:14:06;;;;;;;1999.90;999.90;;;19.30;82.20;;;;;;5074799;28;20036;-71
2023/05/19 06:16:33;;;;;;;1999.90;999.90;;;19.00;83.20;;;;;;5081767;28;20398;-73
2023/05/19 06:19:01;;;;;;;1999.90;999.90;;;19.00;84.10;;;;;;5096085;28;20024;-71
2023/05/19 06:21:28;;;;;;;1999.90;999.90;;;18.90;84.60;;;;;;5076094;28;20082;-72
2023/05/19 06:23:59;;;;;;;1999.90;999.90;;;18.80;85.30;;;;;;5079506;28;20031;-72
2023/05/19 06:26:26;;;;;;;1999.90;999.90;;;18.70;85.60;;;;;;5081927;28;20016;-72
2023/05/19 06:28:54;;;;;;;1999.90;999.90;;;18.60;85.00;;;;;;5081008;28;20067;-71
2023/05/19 06:31:22;;;;;;;1999.90;999.90;;;18.50;85.40;;;;;;5079633;28;20039;-72
2023/05/19 06:33:49;;;;;;;1999.90;999.90;;;18.40;86.00;;;;;;5093014;28;20668;-74
2023/05/19 06:36:17;;;;;;;1999.90;999.90;;;18.20;86.80;;;;;;5089557;28;20020;-73
2023/05/19 06:38:44;;;;;;;1999.90;999.90;;;18.00;87.40;;;;;;5082515;28;20078;-74
2023/05/19 06:41:12;;;;;;;1999.90;999.90;;;17.70;88.70;;;;;;5085992;28;20130;-70
2023/05/19 06:43:39;;;;;;;1999.90;999.90;;;17.50;88.90;;;;;;5093275;28;20032;-73
2023/05/19 06:46:07;;;;;;;1999.90;999.90;;;17.20;89.60;;;;;;5087138;28;20039;-72
2023/05/19 06:48:34;;;;;;;1999.90;999.90;;;17.00;90.10;;;;;;5088835;28;20036;-71
2023/05/19 06:51:02;;;;;;;1999.90;999.90;;;16.80;90.40;;;;;;5084361;28;20077;-70
2023/05/19 06:53:30;;;;;;;1999.90;999.90;;;16.60;90.80;;;;;;5079441;28;20153;-71
2023/05/19 06:55:57;;;;;;;1999.90;999.90;;;16.50;91.20;;;;;;5089307;28;20479;-70
2023/05/19 06:58:25;;;;;;;1999.90;999.90;;;16.30;91.40;;;;;;5077563;28;20248;-70
2023/05/19 07:00:52;;;;;;;1999.90;999.90;;;16.20;91.60;;;;;;5088971;28;20040;-71
2023/05/19 07:03:20;;;;;;;1999.90;999.90;;;16.10;92.10;;;;;;5084105;28;20127;-71
2023/05/19 07:05:47;;;;;;;1999.90;999.90;;;15.90;92.20;;;;;;5086401;28;20020;-71
2023/05/19 07:08:15;;;;;;;1999.90;999.90;;;15.90;92.50;;;;;;5093160;28;20382;-72
2023/05/19 07:10:42;;;;;;;1999.90;999.90;;;15.80;92.70;;;;;;5073870;28;20042;-71
2023/05/19 07:13:09;;;;;;;1999.90;999.90;;;15.70;93.10;;;;;;5094287;28;20029;-71
2023/05/19 07:15:37;;;;;;;1999.90;999.90;;;15.50;93.50;;;;;;5089752;28;20052;-72
2023/05/19 07:18:04;;;;;;;1999.90;999.90;;;15.40;94.00;;;;;;5074785;28;20020;-71
2023/05/19 07:20:31;;;;;;;1999.90;999.90;;;15.30;94.30;;;;;;5086287;28;20059;-72
2023/05/19 07:23:01;;;;;;;1999.90;999.90;;;15.20;94.60;;;;;;5083714;28;20024;-71
2023/05/19 07:25:29;;;;;;;1999.90;999.90;;;15.10;94.60;;;;;;5078211;28;20032;-73
2023/05/19 07:27:57;;;;;;;1999.90;999.90;;;15.00;95.10;;;;;;5082979;28;20022;-73
2023/05/19 07:30:26;;;;;;;1999.90;999.90;;;14.90;95.30;;;;;;5085428;28;20156;-72
2023/05/19 07:32:53;;;;;;;1999.90;999.90;;;14.70;95.60;;;;;;5101447;28;20274;-73
2023/05/19 07:35:23;;;;;;;1999.90;999.90;;;14.60;96.00;;;;;;5083251;28;20073;-72
2023/05/19 07:37:51;;;;;;;1999.90;999.90;;;14.50;96.30;;;;;;5092117;28;20028;-72
2023/05/19 07:40:19;;;;;;;1999.90;999.90;;;14.40;96.90;;;;;;5094345;28;20618;-71
2023/05/19 07:42:48;;;;;;;1999.90;999.90;;;14.30;97.60;;;;;;5084191;28;20043;-74
2023/05/19 07:45:16;;;;;;;1999.90;999.90;;;14.20;97.90;;;;;;5084977;28;20077;-71
2023/05/19 07:47:43;;;;;;;1999.90;999.90;;;14.10;98.10;;;;;;5088176;28;20032;-72
2023/05/19 07:50:10;;;;;;;1999.90;999.90;;;14.00;98.30;;;;;;5085251;28;20126;-71
2023/05/19 07:52:38;;;;;;;1999.90;999.90;;;13.80;98.70;;;;;;5088407;28;20024;-71
2023/05/19 07:55:06;;;;;;;1999.90;999.90;;;13.80;99.10;;;;;;5072794;28;20546;-71
2023/05/19 07:57:33;;;;;;;1999.90;999.90;;;13.70;99.70;;;;;;5086418;28;20039;-72
2023/05/19 08:00:01;;;;;;;1999.90;999.90;;;13.60;99.90;;;;;;5091699;28;20051;-72
2023/05/19 08:02:28;;;;;;;1999.90;999.90;;;13.60;99.90;;;;;;5088047;28;20032;-72
2023/05/19 08:04:55;;;;;;;1999.90;999.90;;;13.50;99.90;;;;;;5089640;28;20074;-72
2023/05/19 08:07:23;;;;;;;1999.90;999.90;;;13.50;99.90;;;;;;5097564;28;20474;-72
2023/05/19 08:09:50;;;;;;;1999.90;999.90;;;13.40;99.90;;;;;;5088354;28;20052;-70
2023/05/19 08:12:17;;;;;;;1999.90;999.90;;;13.40;99.90;;;;;;5091968;28;20380;-72
2023/05/19 08:14:45;;;;;;;1999.90;999.90;;;13.40;99.90;;;;;;5091702;28;20020;-74
2023/05/19 08:17:13;;;;;;;1999.90;999.90;;;13.30;99.90;;;;;;5086040;28;20375;-72
2023/05/19 08:19:40;;;;;;;1999.90;999.90;;;13.20;99.90;;;;;;5090051;28;20027;-73
2023/05/19 08:22:07;;;;;;;1999.90;999.90;;;13.10;99.90;;;;;;5090881;28;20032;-72
2023/05/19 08:24:35;;;;;;;1999.90;999.90;;;13.00;99.90;;;;;;5093048;28;20486;-72
2023/05/19 08:27:03;;;;;;;1999.90;999.90;;;12.90;99.90;;;;;;5087698;28;20056;-71
2023/05/19 08:29:31;;;;;;;1999.90;999.90;;;12.80;99.90;;;;;;5093231;28;20172;-71
2023/05/19 08:31:59;;;;;;;1999.90;999.90;;;12.70;99.90;;;;;;5094944;28;20431;-71
2023/05/19 08:34:26;;;;;;;1999.90;999.90;;;12.60;99.90;;;;;;5093994;28;20359;-71
2023/05/19 08:37:03;;;;;;;1999.90;999.90;;;12.50;99.90;;;;;;5090809;28;20023;-70
2023/05/19 08:39:34;;;;;;;1999.90;999.90;;;12.50;99.90;;;;;;5080046;28;20125;-72
2023/05/19 08:42:02;;;;;;;1999.90;999.90;;;12.40;99.90;;;;;;5095823;28;20460;-71
2023/05/19 08:44:30;;;;;;;1999.90;999.90;;;12.50;99.90;;;;;;5094866;28;20416;-71
2023/05/19 08:47:04;;;;;;;1999.90;999.90;;;12.60;99.90;;;;;;5076241;28;20058;-71
2023/05/19 08:49:36;;;;;;;1999.90;999.90;;;12.60;99.90;;;;;;5093098;28;20436;-71
2023/05/19 08:52:29;;;;;;;1999.90;999.90;;;12.60;99.90;;;;;;5091021;28;20347;-72
2023/05/19 08:55:08;;;;;;;1999.90;999.90;;;12.50;99.90;;;;;;5068852;28;20142;-73
2023/05/19 08:57:37;;;;;;;1999.90;999.90;;;12.50;99.90;;;;;;5093800;28;20016;-70
2023/05/19 09:00:10;;;;;;;1999.90;999.90;;;12.40;99.90;;;;;;5094192;28;20046;-72
2023/05/19 09:02:38;;;;;;;1999.90;999.90;;;12.40;99.90;;;;;;5089793;28;20028;-72
2023/05/19 09:05:06;;;;;;;1999.90;999.90;;;12.40;99.90;;;;;;5091485;28;20035;-71
2023/05/19 09:07:37;;;;;;;1999.90;999.90;;;12.40;99.90;;;;;;5091772;28;20695;-70
2023/05/19 09:10:05;;;;;;;1999.90;999.90;;;12.40;99.90;;;;;;5092287;28;20053;-72
2023/05/19 09:12:44;;;;;;;1999.90;999.90;;;12.40;99.90;;;;;;5080952;28;20369;-72
2023/05/19 09:15:11;;;;;;;1999.90;999.90;;;12.30;99.90;;;;;;5087693;28;20060;-72
2023/05/19 09:17:39;;;;;;;1999.90;999.90;;;12.30;99.90;;;;;;5092374;28;20032;-71
2023/05/19 09:20:10;;;;;;;1999.90;999.90;;;12.30;99.90;;;;;;5085742;28;20089;-72
2023/05/19 09:22:46;;;;;;;1999.90;999.90;;;12.20;99.90;;;;;;5087309;28;20093;-71
2023/05/19 09:25:23;;;;;;;1999.90;999.90;;;12.20;99.90;;;;;;5085483;28;20173;-71
2023/05/19 09:27:53;;;;;;;1999.90;999.90;;;12.20;99.90;;;;;;5085695;28;20020;-71
2023/05/19 09:30:20;;;;;;;1999.90;999.90;;;12.10;99.90;;;;;;5092261;28;20446;-71
2023/05/19 09:32:48;;;;;;;1999.90;999.90;;;12.00;99.90;;;;;;5098986;28;20039;-71
2023/05/19 09:35:19;;;;;;;1999.90;999.90;;;11.90;99.90;;;;;;5087535;28;20048;-71
2023/05/19 09:37:47;;;;;;;1999.90;999.90;;;11.90;99.90;;;;;;5086449;28;20462;-71
2023/05/19 09:40:15;;;;;;;1999.90;999.90;;;11.90;99.90;;;;;;5084596;28;20061;-73
2023/05/19 09:42:43;;;;;;;1999.90;999.90;;;11.90;99.90;;;;;;5096507;28;20073;-72
2023/05/19 09:45:10;;;;;;;1999.90;999.90;;;11.80;99.90;;;;;;5094046;28;20028;-71
2023/05/19 09:47:40;;;;;;;1999.90;999.90;;;11.80;99.90;;;;;;5088270;28;20031;-72
2023/05/19 09:50:13;;;;;;;1999.90;999.90;;;11.70;99.90;;;;;;5087061;28;20036;-71
2023/05/19 09:52:43;;;;;;;1999.90;999.90;;;11.70;99.90;;;;;;5094490;28;20055;-71
2023/05/19 09:55:12;;;;;;;1999.90;999.90;;;11.70;99.90;;;;;;5082361;28;20119;-72
2023/05/19 09:57:40;;;;;;;1999.90;999.90;;;11.60;99.90;;;;;;5094322;28;20028;-72
2023/05/19 10:00:14;;;;;;;1999.90;999.90;;;11.50;99.90;;;;;;5090604;28;20123;-73
2023/05/19 10:02:45;;;;;;;1999.90;999.90;;;11.50;99.90;;;;;;5087718;28;20072;-72
2023/05/19 10:05:21;;;;;;;1999.90;999.90;;;11.40;99.90;;;;;;5093362;28;20028;-73
2023/05/19 10:07:53;;;;;;;1999.90;999.90;;;11.30;99.90;;;;;;5098132;28;20026;-72
2023/05/19 10:10:21;;;;;;;1999.90;999.90;;;11.20;99.90;;;;;;5065583;28;20490;-70
2023/05/19 10:12:49;;;;;;;1999.90;999.90;;;11.20;99.90;;;;;;5082801;28;20047;-70
2023/05/19 10:15:19;;;;;;;1999.90;999.90;;;11.10;99.90;;;;;;5088657;28;20061;-71
2023/05/19 10:17:46;;;;;;;1999.90;999.90;;;11.10;99.90;;;;;;5093822;28;20080;-71
2023/05/19 10:20:16;;;;;;;1999.90;999.90;;;11.00;99.90;;;;;;5087501;28;20371;-72
2023/05/19 10:22:45;;;;;;;1999.90;999.90;;;11.00;99.90;;;;;;5090060;28;20041;-72
2023/05/19 10:25:14;;;;;;;1999.90;999.90;;;11.00;99.90;;;;;;5087366;28;20070;-72
2023/05/19 10:27:45;;;;;;;1999.90;999.90;;;11.00;99.90;;;;;;5087908;28;20437;-71
2023/05/19 10:30:21;;;;;;;1999.90;999.90;;;10.90;99.90;;;;;;5096462;28;20072;-72
2023/05/19 10:32:48;;;;;;;;;;;10.80;99.90;;;;;;5089311;28;20028;-70
2023/05/19 10:35:36;;;;;;;1999.90;999.90;;;10.80;99.90;;;;;;5087511;28;20635;-71
2023/05/19 10:38:19;;;;;;;1999.90;999.90;;;10.80;99.90;;;;;;5088816;28;20056;-71
2023/05/19 10:40:52;;;;;;;1999.90;999.90;;;10.70;99.90;;;;;;5086551;28;20047;-72
2023/05/19 10:43:39;;;;;;;1999.90;999.90;;;10.70;99.90;;;;;;5107114;28;20102;-71
2023/05/19 10:46:06;;;;;;;1999.90;999.90;;;10.70;99.90;;;;;;5083337;28;20063;-71
2023/05/19 10:48:37;;;;;;;1999.90;999.90;;;10.60;99.90;;;;;;5093697;28;20044;-72
2023/05/19 10:51:10;;;;;;;1999.90;999.90;;;10.60;99.90;;;;;;5090590;28;20035;-72
2023/05/19 10:53:49;;;;;;;1999.90;999.90;;;10.50;99.90;;;;;;5088951;28;20382;-70
2023/05/19 10:56:35;;;;;;;1999.90;999.90;;;10.40;99.90;;;;;;5087074;28;20083;-72
2023/05/19 10:59:03;;;;;;;1999.90;999.90;;;10.30;99.90;;;;;;5089743;28;20370;-72
2023/05/19 11:01:36;;;;;;;1999.90;999.90;;;10.30;99.90;;;;;;5085969;28;20052;-72
2023/05/19 11:04:14;;;;;;;1999.90;999.90;;;10.20;99.90;;;;;;5091256;28;20045;-71
2023/05/19 11:06:50;;;;;;;1999.90;999.90;;;10.20;99.90;;;;;;5083921;28;20075;-71
2023/05/19 11:09:24;;;;;;;1999.90;999.90;;;10.10;99.90;;;;;;5089007;28;20051;-71
2023/05/19 11:11:55;;;;;;;1999.90;999.90;;;10.00;99.90;;;;;;5090925;28;20024;-70
2023/05/19 11:14:27;;;;;;;1999.90;999.90;;;9.90;99.90;;;;;;5102155;28;20036;-70
2023/05/19 11:16:59;;;;;;;1999.90;999.90;;;9.80;99.90;;;;;;5098587;28;20414;-72
2023/05/19 11:19:36;;;;;;;1999.90;999.90;;;9.70;99.90;;;;;;5079735;28;20505;-71
2023/05/19 11:22:14;;;;;;;1999.90;999.90;;;9.60;99.90;;;;;;5095025;28;20066;-70
2023/05/19 11:24:49;;;;;;;1999.90;999.90;;;9.60;99.90;;;;;;5098228;28;20356;-71
2023/05/19 11:27:32;;;;;;;1999.90;999.90;;;9.50;99.90;;;;;;5094056;28;20115;-71
2023/05/19 11:30:01;;;;;;;1999.90;999.90;;;9.50;99.90;;;;;;5094827;28;20491;-72
2023/05/19 11:32:32;;;;;;;1999.90;999.90;;;9.50;99.90;;;;;;5100317;28;20024;-72
2023/05/19 11:34:59;;;;;;;1999.90;999.90;;;9.60;99.90;;;;;;5097388;28;20032;-71
2023/05/19 11:37:30;;;;;;;1999.90;999.90;;;9.60;99.90;;;;;;5093348;28;20035;-72
2023/05/19 11:40:00;;;;;;;1999.90;999.90;;;9.60;99.90;;;;;;5093370;28;20032;-71
2023/05/19 11:42:28;;;;;;;1999.90;999.90;;;9.60;99.90;;;;;;5095884;28;20021;-72
2023/05/19 11:44:56;;;;;;;1999.90;999.90;;;9.60;99.90;;;;;;5092020;28;20388;-72
2023/05/19 11:47:23;;;;;;;1999.90;999.90;;;9.70;99.90;;;;;;5096891;28;20028;-71
2023/05/19 11:49:51;;;;;;;1999.90;999.90;;;9.70;99.90;;;;;;5095631;28;20035;-71
2023/05/19 11:52:22;;;;;;;1999.90;999.90;;;9.70;99.90;;;;;;5095005;28;20023;-70
2023/05/19 11:54:49;;;;;;;1999.90;999.90;;;9.70;99.90;;;;;;5096461;28;20137;-71
2023/05/19 11:57:17;;;;;;;1999.90;999.90;;;9.70;99.90;;;;;;5095406;28;20558;-72
2023/05/19 11:59:46;;;;;;;1999.90;999.90;;;9.70;99.90;;;;;;5095751;28;20135;-72
2023/05/19 12:02:26;;;;;;;1999.90;999.90;;;9.60;99.90;;;;;;5095833;28;20489;-73
2023/05/19 12:04:54;;;;;;;1999.90;999.90;;;9.40;99.90;;;;;;5092986;28;20026;-73
2023/05/19 12:07:25;;;;;;;1999.90;999.90;;;9.20;99.90;;;;;;5092614;28;20032;-73
2023/05/19 12:09:54;;;;;;;1999.90;999.90;;;9.10;99.90;;;;;;5093867;28;20028;-73
2023/05/19 12:12:23;;;;;;;1999.90;999.90;;;9.00;99.90;;;;;;5095258;28;20038;-71
2023/05/19 12:14:53;;;;;;;1999.90;999.90;;;8.80;99.90;;;;;;5084339;28;20039;-73